createdAt,value
2022-09-10T00:00:12.468Z,18.33
2022-09-10T00:00:44.037Z,18.26
2022-09-10T00:01:17.437Z,18.34
2022-09-10T00:01:49.210Z,18.36
2022-09-10T00:02:20.759Z,18.37
2022-09-10T00:02:52.321Z,18.43
2022-09-10T00:03:24.360Z,18.40
2022-09-10T00:03:56.590Z,18.32
2022-09-10T00:04:28.441Z,18.29
2022-09-10T00:05:02.548Z,18.30
2022-09-10T00:05:41.949Z,18.23
2022-09-10T00:06:13.512Z,18.23
2022-09-10T00:06:45.342Z,18.18
2022-09-10T00:07:18.638Z,18.10
2022-09-10T00:07:50.137Z,18.17
2022-09-10T00:08:21.953Z,18.18
2022-09-10T00:08:57.254Z,18.14
2022-09-10T00:09:29.054Z,18.20
2022-09-10T00:10:00.564Z,18.24
2022-09-10T00:10:32.075Z,18.27
2022-09-10T00:11:07.091Z,18.17
2022-09-10T00:11:41.017Z,18.13
2022-09-10T00:12:12.497Z,18.14
2022-09-10T00:12:44.105Z,18.02
2022-09-10T00:13:19.260Z,17.96
2022-09-10T00:13:51.159Z,18.00
2022-09-10T00:14:24.002Z,18.03
2022-09-10T00:14:56.422Z,18.07
2022-09-10T00:15:27.944Z,18.06
2022-09-10T00:16:02.359Z,18.07
2022-09-10T00:16:33.982Z,18.09
2022-09-10T00:17:05.523Z,18.12
2022-09-10T00:17:39.111Z,18.05
2022-09-10T00:18:11.619Z,18.07
2022-09-10T00:18:43.199Z,18.12
2022-09-10T00:19:15.467Z,18.13
2022-09-10T00:19:47.097Z,18.20
2022-09-10T00:20:18.641Z,18.20
2022-09-10T00:20:56.145Z,18.22
2022-09-10T00:21:29.882Z,18.24
2022-09-10T00:22:01.474Z,18.24
2022-09-10T00:22:34.361Z,18.23
2022-09-10T00:23:05.886Z,18.17
2022-09-10T00:23:37.901Z,18.17
2022-09-10T00:24:09.415Z,18.10
2022-09-10T00:24:41.071Z,18.18
2022-09-10T00:25:12.575Z,18.23
2022-09-10T00:25:44.063Z,18.20
2022-09-10T00:26:27.761Z,18.13
2022-09-10T00:26:59.761Z,18.16
2022-09-10T00:27:31.262Z,18.14
2022-09-10T00:28:02.981Z,18.17
2022-09-10T00:28:34.621Z,18.14
2022-09-10T00:29:08.579Z,18.06
2022-09-10T00:29:40.057Z,18.06
2022-09-10T00:30:12.233Z,18.09
2022-09-10T00:30:46.583Z,18.02
2022-09-10T00:31:19.759Z,18.06
2022-09-10T00:31:51.770Z,18.06
2022-09-10T00:32:23.268Z,18.07
2022-09-10T00:32:55.442Z,18.13
2022-09-10T00:33:26.938Z,18.02
2022-09-10T00:34:00.542Z,18.07
2022-09-10T00:34:32.849Z,18.10
2022-09-10T00:35:04.850Z,18.03
2022-09-10T00:35:36.826Z,18.05
2022-09-10T00:36:23.281Z,18.06
2022-09-10T00:36:54.840Z,18.12
2022-09-10T00:37:26.334Z,18.06
2022-09-10T00:37:57.874Z,18.14
2022-09-10T00:38:30.082Z,18.17
2022-09-10T00:39:08.346Z,18.24
2022-09-10T00:39:40.485Z,18.22
2022-09-10T00:40:12.741Z,18.18
2022-09-10T00:40:44.945Z,18.24
2022-09-10T00:41:17.763Z,18.26
2022-09-10T00:41:49.389Z,18.20
2022-09-10T00:42:21.093Z,18.23
2022-09-10T00:42:52.691Z,18.12
2022-09-10T00:43:24.712Z,18.14
2022-09-10T00:43:58.785Z,18.13
2022-09-10T00:44:43.670Z,18.12
2022-09-10T00:45:27.183Z,18.06
2022-09-10T00:45:58.808Z,18.06
2022-09-10T00:46:35.997Z,18.06
2022-09-10T00:47:14.736Z,18.10
2022-09-10T00:47:50.409Z,18.10
2022-09-10T00:48:27.600Z,18.09
2022-09-10T00:49:02.855Z,18.06
2022-09-10T00:49:40.590Z,18.06
2022-09-10T00:50:22.049Z,18.03
2022-09-10T00:50:54.982Z,18.05
2022-09-10T00:51:31.105Z,18.05
2022-09-10T00:52:03.215Z,18.12
2022-09-10T00:52:39.590Z,18.10
2022-09-10T00:53:15.705Z,18.13
2022-09-10T00:53:47.310Z,18.13
2022-09-10T00:54:21.997Z,18.09
2022-09-10T00:54:54.232Z,18.09
2022-09-10T00:55:25.820Z,18.00
2022-09-10T00:56:00.176Z,18.10
2022-09-10T00:56:33.941Z,18.12
2022-09-10T00:57:13.023Z,18.12
2022-09-10T00:57:47.601Z,18.12
2022-09-10T00:58:20.793Z,18.09
2022-09-10T00:58:52.771Z,18.16
2022-09-10T00:59:26.573Z,18.16
2022-09-10T01:00:03.393Z,18.14
2022-09-10T01:00:35.075Z,18.13
2022-09-10T01:01:07.679Z,18.13
2022-09-10T01:01:40.456Z,18.14
2022-09-10T01:02:12.247Z,18.09
2022-09-10T01:02:44.222Z,18.07
2022-09-10T01:03:17.104Z,18.02
2022-09-10T01:03:49.736Z,18.03
2022-09-10T01:04:21.768Z,17.99
2022-09-10T01:04:55.400Z,17.97
2022-09-10T01:05:27.051Z,18.03
2022-09-10T01:05:58.997Z,17.97
2022-09-10T01:06:31.000Z,18.00
2022-09-10T01:07:02.875Z,18.02
2022-09-10T01:07:35.456Z,18.00
2022-09-10T01:08:06.953Z,18.00
2022-09-10T01:08:38.645Z,18.00
2022-09-10T01:09:10.827Z,18.05
2022-09-10T01:09:42.876Z,18.05
2022-09-10T01:10:28.053Z,18.05
2022-09-10T01:11:14.459Z,18.02
2022-09-10T01:11:58.048Z,17.99
2022-09-10T01:12:47.869Z,18.02
2022-09-10T01:13:37.395Z,18.09
2022-09-10T01:14:24.133Z,17.99
2022-09-10T01:15:07.801Z,18.03
2022-09-10T01:15:49.954Z,18.05
2022-09-10T01:16:24.497Z,18.03
2022-09-10T01:17:19.702Z,18.00
2022-09-10T01:18:14.266Z,18.00
2022-09-10T01:19:07.504Z,17.93
2022-09-10T01:20:03.906Z,17.90
2022-09-10T01:21:00.347Z,17.90
2022-09-10T01:21:52.690Z,17.82
2022-09-10T01:22:32.522Z,17.81
2022-09-10T01:23:21.926Z,17.82
2022-09-10T01:24:33.877Z,17.78
2022-09-10T01:25:48.491Z,17.81
2022-09-10T01:26:41.074Z,17.79
2022-09-10T01:27:31.078Z,17.78
2022-09-10T01:28:08.871Z,17.71
2022-09-10T01:28:51.284Z,17.72
2022-09-10T01:29:47.214Z,17.65
2022-09-10T01:30:22.925Z,17.65
2022-09-10T01:31:02.322Z,17.68
2022-09-10T01:31:54.580Z,17.68
2022-09-10T01:32:35.689Z,17.69
2022-09-10T01:33:20.405Z,17.66
2022-09-10T01:34:08.082Z,17.61
2022-09-10T01:34:55.082Z,17.59
2022-09-10T01:35:38.530Z,17.57
2022-09-10T01:36:16.404Z,17.54
2022-09-10T01:36:51.937Z,17.61
2022-09-10T01:37:32.893Z,17.66
2022-09-10T01:38:10.384Z,17.65
2022-09-10T01:38:42.706Z,17.58
2022-09-10T01:39:16.966Z,17.59
2022-09-10T01:39:51.720Z,17.61
2022-09-10T01:40:29.739Z,17.61
2022-09-10T01:41:02.149Z,17.54
2022-09-10T01:41:34.075Z,17.55
2022-09-10T01:42:07.003Z,17.48
2022-09-10T01:42:41.631Z,17.58
2022-09-10T01:43:13.469Z,17.59
2022-09-10T01:43:45.001Z,17.58
2022-09-10T01:44:41.365Z,17.51
2022-09-10T01:45:15.453Z,17.49
2022-09-10T01:45:55.970Z,17.49
2022-09-10T01:46:49.468Z,17.49
2022-09-10T01:47:58.184Z,17.41
2022-09-10T01:48:51.572Z,17.41
2022-09-10T01:49:23.277Z,17.45
2022-09-10T01:50:24.739Z,17.47
2022-09-10T01:51:28.292Z,17.42
2022-09-10T01:52:26.331Z,17.38
2022-09-10T01:53:35.018Z,17.39
2022-09-10T01:54:28.614Z,17.44
2022-09-10T01:55:26.797Z,17.41
2022-09-10T01:56:19.614Z,17.45
2022-09-10T01:57:14.381Z,17.48
2022-09-10T01:58:13.547Z,17.42
2022-09-10T01:58:45.684Z,17.48
2022-09-10T01:59:29.099Z,17.48
2022-09-10T02:00:12.867Z,17.47
2022-09-10T02:01:26.023Z,17.45
2022-09-10T02:02:19.652Z,17.38
2022-09-10T02:02:59.212Z,17.34
2022-09-10T02:03:33.097Z,17.32
2022-09-10T02:04:08.594Z,17.35
2022-09-10T02:04:42.505Z,17.35
2022-09-10T02:05:16.864Z,17.34
2022-09-10T02:05:53.854Z,17.32
2022-09-10T02:06:30.920Z,17.31
2022-09-10T02:07:04.955Z,17.30
2022-09-10T02:07:37.782Z,17.34
2022-09-10T02:08:14.654Z,17.23
2022-09-10T02:08:51.881Z,17.27
2022-09-10T02:09:23.830Z,17.21
2022-09-10T02:09:55.597Z,17.23
2022-09-10T02:10:27.461Z,17.17
2022-09-10T02:11:06.415Z,17.18
2022-09-10T02:11:47.340Z,17.13
2022-09-10T02:12:21.028Z,17.10
2022-09-10T02:12:52.710Z,17.16
2022-09-10T02:13:24.481Z,17.13
2022-09-10T02:13:56.860Z,17.14
2022-09-10T02:14:28.597Z,17.08
2022-09-10T02:15:00.784Z,17.08
2022-09-10T02:15:33.359Z,17.07
2022-09-10T02:16:09.945Z,17.07
2022-09-10T02:16:47.456Z,17.07
2022-09-10T02:17:20.313Z,17.04
2022-09-10T02:17:53.644Z,17.11
2022-09-10T02:18:26.826Z,17.06
2022-09-10T02:19:00.091Z,17.10
2022-09-10T02:19:31.598Z,17.04
2022-09-10T02:20:06.956Z,17.02
2022-09-10T02:20:39.298Z,17.06
2022-09-10T02:21:12.102Z,17.02
2022-09-10T02:21:44.099Z,17.04
2022-09-10T02:22:15.648Z,17.04
2022-09-10T02:22:53.710Z,16.99
2022-09-10T02:23:31.774Z,16.99
2022-09-10T02:24:10.028Z,16.97
2022-09-10T02:24:44.272Z,16.97
2022-09-10T02:25:16.464Z,16.96
2022-09-10T02:25:49.203Z,16.94
2022-09-10T02:26:20.762Z,16.89
2022-09-10T02:26:52.368Z,16.90
2022-09-10T02:27:23.945Z,16.91
2022-09-10T02:27:56.178Z,16.90
2022-09-10T02:28:28.035Z,16.91
2022-09-10T02:29:01.825Z,16.89
2022-09-10T02:29:34.228Z,16.87
2022-09-10T02:30:07.792Z,16.86
2022-09-10T02:30:39.319Z,16.91
2022-09-10T02:31:11.466Z,16.90
2022-09-10T02:31:43.986Z,16.93
2022-09-10T02:32:15.929Z,16.86
2022-09-10T02:32:47.862Z,16.90
2022-09-10T02:33:19.414Z,16.91
2022-09-10T02:33:51.227Z,16.87
2022-09-10T02:34:23.116Z,16.90
2022-09-10T02:34:54.630Z,16.91
2022-09-10T02:35:26.194Z,16.86
2022-09-10T02:35:58.672Z,16.87
2022-09-10T02:36:31.714Z,16.80
2022-09-10T02:37:03.949Z,16.89
2022-09-10T02:37:35.954Z,16.86
2022-09-10T02:38:08.179Z,16.86
2022-09-10T02:38:40.436Z,16.89
2022-09-10T02:39:11.944Z,16.87
2022-09-10T02:39:45.479Z,16.84
2022-09-10T02:40:21.153Z,16.81
2022-09-10T02:40:52.653Z,16.75
2022-09-10T02:41:25.527Z,16.73
2022-09-10T02:41:58.697Z,16.75
2022-09-10T02:42:30.207Z,16.75
2022-09-10T02:43:01.730Z,16.79
2022-09-10T02:43:38.086Z,16.79
2022-09-10T02:44:09.630Z,16.83
2022-09-10T02:44:41.306Z,16.77
2022-09-10T02:45:13.852Z,16.77
2022-09-10T02:45:45.610Z,16.79
2022-09-10T02:46:18.029Z,16.76
2022-09-10T02:46:49.544Z,16.81
2022-09-10T02:47:21.134Z,16.75
2022-09-10T02:47:52.818Z,16.70
2022-09-10T02:48:27.809Z,16.72
2022-09-10T02:48:59.339Z,16.76
2022-09-10T02:49:31.850Z,16.77
2022-09-10T02:50:03.556Z,16.73
2022-09-10T02:50:35.464Z,16.72
2022-09-10T02:51:07.084Z,16.70
2022-09-10T02:51:38.852Z,16.69
2022-09-10T02:52:10.400Z,16.66
2022-09-10T02:52:41.918Z,16.66
2022-09-10T02:53:13.980Z,16.63
2022-09-10T02:53:45.492Z,16.62
2022-09-10T02:54:19.856Z,16.68
2022-09-10T02:54:51.405Z,16.66
2022-09-10T02:55:22.993Z,16.62
2022-09-10T02:55:54.510Z,16.58
2022-09-10T02:56:26.032Z,16.58
2022-09-10T02:56:57.565Z,16.56
2022-09-10T02:57:29.795Z,16.55
2022-09-10T02:58:01.638Z,16.56
2022-09-10T02:58:34.109Z,16.56
2022-09-10T02:59:06.380Z,16.55
2022-09-10T02:59:37.926Z,16.55
2022-09-10T03:00:10.350Z,16.58
2022-09-10T03:00:42.730Z,16.55
2022-09-10T03:01:18.215Z,16.56
2022-09-10T03:01:49.857Z,16.59
2022-09-10T03:02:21.404Z,16.58
2022-09-10T03:02:53.020Z,16.60
2022-09-10T03:03:24.540Z,16.62
2022-09-10T03:03:58.211Z,16.63
2022-09-10T03:04:29.730Z,16.60
2022-09-10T03:05:01.317Z,16.63
2022-09-10T03:05:32.982Z,16.60
2022-09-10T03:06:05.122Z,16.65
2022-09-10T03:06:37.008Z,16.68
2022-09-10T03:07:08.589Z,16.66
2022-09-10T03:07:40.484Z,16.65
2022-09-10T03:08:12.129Z,16.66
2022-09-10T03:08:43.884Z,16.65
2022-09-10T03:09:16.371Z,16.60
2022-09-10T03:09:47.882Z,16.63
2022-09-10T03:10:19.395Z,16.63
2022-09-10T03:10:50.942Z,16.63
2022-09-10T03:11:25.321Z,16.63
2022-09-10T03:11:56.850Z,16.56
2022-09-10T03:12:28.378Z,16.63
2022-09-10T03:13:00.374Z,16.63
2022-09-10T03:13:31.868Z,16.70
2022-09-10T03:14:03.392Z,16.68
2022-09-10T03:14:34.910Z,16.66
2022-09-10T03:15:07.172Z,16.63
2022-09-10T03:15:38.664Z,16.65
2022-09-10T03:16:10.413Z,16.69
2022-09-10T03:16:42.015Z,16.68
2022-09-10T03:17:13.546Z,16.66
2022-09-10T03:17:45.061Z,16.69
2022-09-10T03:18:18.121Z,16.77
2022-09-10T03:18:49.741Z,16.75
2022-09-10T03:19:21.562Z,16.73
2022-09-10T03:19:53.148Z,16.73
2022-09-10T03:20:25.350Z,16.68
2022-09-10T03:21:08.766Z,16.65
2022-09-10T03:21:43.476Z,16.63
2022-09-10T03:22:14.981Z,16.70
2022-09-10T03:22:47.375Z,16.69
2022-09-10T03:23:19.038Z,16.63
2022-09-10T03:23:52.643Z,16.59
2022-09-10T03:24:25.296Z,16.62
2022-09-10T03:24:56.818Z,16.66
2022-09-10T03:25:28.324Z,16.63
2022-09-10T03:26:00.132Z,16.63
2022-09-10T03:26:31.641Z,16.68
2022-09-10T03:27:03.390Z,16.60
2022-09-10T03:27:35.450Z,16.62
2022-09-10T03:28:07.117Z,16.58
2022-09-10T03:28:38.756Z,16.60
2022-09-10T03:29:10.798Z,16.59
2022-09-10T03:29:43.245Z,16.60
2022-09-10T03:30:14.925Z,16.56
2022-09-10T03:30:46.418Z,16.52
2022-09-10T03:31:18.249Z,16.51
2022-09-10T03:31:51.729Z,16.56
2022-09-10T03:32:23.407Z,16.63
2022-09-10T03:32:54.966Z,16.60
2022-09-10T03:33:26.688Z,16.62
2022-09-10T03:33:59.719Z,16.55
2022-09-10T03:34:31.244Z,16.53
2022-09-10T03:35:02.862Z,16.53
2022-09-10T03:35:34.388Z,16.53
2022-09-10T03:36:06.110Z,16.55
2022-09-10T03:36:37.614Z,16.55
2022-09-10T03:37:09.117Z,16.55
2022-09-10T03:37:40.674Z,16.56
2022-09-10T03:38:12.180Z,16.55
2022-09-10T03:38:44.269Z,16.53
2022-09-10T03:39:16.281Z,16.53
2022-09-10T03:39:48.079Z,16.53
2022-09-10T03:40:19.692Z,16.55
2022-09-10T03:40:53.102Z,16.59
2022-09-10T03:41:26.933Z,16.60
2022-09-10T03:41:58.706Z,16.59
2022-09-10T03:42:30.272Z,16.56
2022-09-10T03:43:02.903Z,16.58
2022-09-10T03:43:34.548Z,16.56
2022-09-10T03:44:06.441Z,16.59
2022-09-10T03:44:38.140Z,16.59
2022-09-10T03:45:10.222Z,16.66
2022-09-10T03:45:41.769Z,16.72
2022-09-10T03:46:13.314Z,16.68
2022-09-10T03:46:45.694Z,16.62
2022-09-10T03:47:17.940Z,16.60
2022-09-10T03:47:49.459Z,16.59
2022-09-10T03:48:21.725Z,16.63
2022-09-10T03:48:55.391Z,16.66
2022-09-10T03:49:28.005Z,16.65
2022-09-10T03:49:59.856Z,16.63
2022-09-10T03:50:31.670Z,16.65
2022-09-10T03:51:03.202Z,16.68
2022-09-10T03:51:35.209Z,16.65
2022-09-10T03:52:06.994Z,16.68
2022-09-10T03:52:38.516Z,16.66
2022-09-10T03:53:14.842Z,16.59
2022-09-10T03:53:46.358Z,16.60
2022-09-10T03:54:17.875Z,16.55
2022-09-10T03:54:51.147Z,16.51
2022-09-10T03:55:23.402Z,16.51
2022-09-10T03:55:55.701Z,16.49
2022-09-10T03:56:27.846Z,16.47
2022-09-10T03:57:03.098Z,16.49
2022-09-10T03:57:34.655Z,16.52
2022-09-10T03:58:06.307Z,16.52
2022-09-10T03:58:38.024Z,16.49
2022-09-10T03:59:09.869Z,16.53
2022-09-10T03:59:41.406Z,16.51
2022-09-10T04:00:13.547Z,16.47
2022-09-10T04:00:46.192Z,16.49
2022-09-10T04:01:18.592Z,16.56
2022-09-10T04:01:50.730Z,16.48
2022-09-10T04:02:22.283Z,16.52
2022-09-10T04:02:53.860Z,16.49
2022-09-10T04:03:25.993Z,16.48
2022-09-10T04:03:58.223Z,16.51
2022-09-10T04:04:31.457Z,16.49
2022-09-10T04:05:03.029Z,16.52
2022-09-10T04:05:35.110Z,16.49
2022-09-10T04:06:12.922Z,16.53
2022-09-10T04:06:45.230Z,16.52
2022-09-10T04:07:16.769Z,16.55
2022-09-10T04:07:48.302Z,16.56
2022-09-10T04:08:20.586Z,16.51
2022-09-10T04:08:52.854Z,16.52
2022-09-10T04:09:24.391Z,16.53
2022-09-10T04:09:56.068Z,16.51
2022-09-10T04:10:28.408Z,16.52
2022-09-10T04:11:03.596Z,16.55
2022-09-10T04:11:35.939Z,16.51
2022-09-10T04:12:08.049Z,16.53
2022-09-10T04:12:39.615Z,16.52
2022-09-10T04:13:11.599Z,16.58
2022-09-10T04:13:43.149Z,16.56
2022-09-10T04:14:15.706Z,16.62
2022-09-10T04:14:47.283Z,16.63
2022-09-10T04:15:19.161Z,16.55
2022-09-10T04:15:50.761Z,16.56
2022-09-10T04:16:23.444Z,16.55
2022-09-10T04:16:55.023Z,16.52
2022-09-10T04:17:28.159Z,16.49
2022-09-10T04:17:59.822Z,16.51
2022-09-10T04:18:34.505Z,16.58
2022-09-10T04:19:06.125Z,16.55
2022-09-10T04:19:37.995Z,16.49
2022-09-10T04:20:09.805Z,16.49
2022-09-10T04:20:42.251Z,16.48
2022-09-10T04:21:13.783Z,16.47
2022-09-10T04:21:45.395Z,16.48
2022-09-10T04:22:16.960Z,16.49
2022-09-10T04:22:49.599Z,16.49
2022-09-10T04:23:21.194Z,16.49
2022-09-10T04:23:56.391Z,16.48
2022-09-10T04:24:27.921Z,16.48
2022-09-10T04:24:59.661Z,16.48
2022-09-10T04:25:31.673Z,16.51
2022-09-10T04:26:12.004Z,16.47
2022-09-10T04:26:43.503Z,16.48
2022-09-10T04:27:16.474Z,16.51
2022-09-10T04:27:49.736Z,16.52
2022-09-10T04:28:21.246Z,16.47
2022-09-10T04:28:53.573Z,16.51
2022-09-10T04:29:25.347Z,16.51
2022-09-10T04:29:57.041Z,16.49
2022-09-10T04:30:29.034Z,16.52
2022-09-10T04:31:00.623Z,16.49
2022-09-10T04:31:32.166Z,16.51
2022-09-10T04:32:03.965Z,16.56
2022-09-10T04:32:35.668Z,16.52
2022-09-10T04:33:07.765Z,16.51
2022-09-10T04:33:39.504Z,16.55
2022-09-10T04:34:11.500Z,16.51
2022-09-10T04:34:43.115Z,16.51
2022-09-10T04:35:15.481Z,16.52
2022-09-10T04:35:47.066Z,16.58
2022-09-10T04:36:19.245Z,16.62
2022-09-10T04:36:50.761Z,16.60
2022-09-10T04:37:22.435Z,16.55
2022-09-10T04:37:54.025Z,16.51
2022-09-10T04:38:25.772Z,16.55
2022-09-10T04:38:58.196Z,16.53
2022-09-10T04:39:29.978Z,16.55
2022-09-10T04:40:01.864Z,16.58
2022-09-10T04:40:34.297Z,16.62
2022-09-10T04:41:06.114Z,16.63
2022-09-10T04:41:37.652Z,16.53
2022-09-10T04:42:09.839Z,16.56
2022-09-10T04:42:41.357Z,16.56
2022-09-10T04:43:12.917Z,16.56
2022-09-10T04:43:44.413Z,16.52
2022-09-10T04:44:20.018Z,16.52
2022-09-10T04:44:51.654Z,16.51
2022-09-10T04:45:23.209Z,16.58
2022-09-10T04:45:55.651Z,16.55
2022-09-10T04:46:27.230Z,16.58
2022-09-10T04:46:58.737Z,16.59
2022-09-10T04:47:30.242Z,16.55
2022-09-10T04:48:06.661Z,16.60
2022-09-10T04:48:39.086Z,16.68
2022-09-10T04:49:11.089Z,16.65
2022-09-10T04:49:43.499Z,16.62
2022-09-10T04:50:15.638Z,16.63
2022-09-10T04:51:12.265Z,16.60
2022-09-10T04:51:38.804Z,16.62
2022-09-10T04:52:11.874Z,16.56
2022-09-10T04:52:43.377Z,16.59
2022-09-10T04:53:15.225Z,16.58
2022-09-10T04:53:46.768Z,16.55
2022-09-10T04:54:18.436Z,16.62
2022-09-10T04:54:50.015Z,16.60
2022-09-10T04:55:21.542Z,16.60
2022-09-10T04:55:54.573Z,16.63
2022-09-10T04:56:26.610Z,16.66
2022-09-10T04:56:58.116Z,16.59
2022-09-10T04:57:29.667Z,16.59
2022-09-10T04:58:01.165Z,16.62
2022-09-10T04:58:37.918Z,16.56
2022-09-10T04:59:10.896Z,16.58
2022-09-10T04:59:42.421Z,16.59
2022-09-10T05:00:14.656Z,16.62
2022-09-10T05:00:46.569Z,16.65
2022-09-10T05:01:18.234Z,16.69
2022-09-10T05:01:50.598Z,16.69
2022-09-10T05:02:22.223Z,16.68
2022-09-10T05:02:53.786Z,16.63
2022-09-10T05:03:25.292Z,16.69
2022-09-10T05:03:57.090Z,16.69
2022-09-10T05:04:28.641Z,16.70
2022-09-10T05:05:00.314Z,16.65
2022-09-10T05:05:33.137Z,16.73
2022-09-10T05:06:05.177Z,16.77
2022-09-10T05:06:36.741Z,16.76
2022-09-10T05:07:08.287Z,16.72
2022-09-10T05:07:39.785Z,16.73
2022-09-10T05:08:12.785Z,16.75
2022-09-10T05:08:44.301Z,16.81
2022-09-10T05:09:18.624Z,16.77
2022-09-10T05:09:50.321Z,16.83
2022-09-10T05:10:24.407Z,16.83
2022-09-10T05:10:56.327Z,16.83
2022-09-10T05:11:27.904Z,16.81
2022-09-10T05:12:01.051Z,16.90
2022-09-10T05:12:32.541Z,16.93
2022-09-10T05:13:04.396Z,16.90
2022-09-10T05:13:35.907Z,16.94
2022-09-10T05:14:07.609Z,16.99
2022-09-10T05:14:39.183Z,16.97
2022-09-10T05:15:10.879Z,17.02
2022-09-10T05:15:42.861Z,17.03
2022-09-10T05:16:14.419Z,17.02
2022-09-10T05:16:46.249Z,17.06
2022-09-10T05:17:17.858Z,17.07
2022-09-10T05:17:49.807Z,17.06
2022-09-10T05:18:21.309Z,17.04
2022-09-10T05:18:53.249Z,17.04
2022-09-10T05:19:24.769Z,17.00
2022-09-10T05:19:56.341Z,17.02
2022-09-10T05:20:28.245Z,17.07
2022-09-10T05:20:59.808Z,17.07
2022-09-10T05:21:32.117Z,17.07
2022-09-10T05:22:03.713Z,17.14
2022-09-10T05:22:40.315Z,17.16
2022-09-10T05:23:12.358Z,17.16
2022-09-10T05:23:44.114Z,17.18
2022-09-10T05:24:16.502Z,17.18
2022-09-10T05:24:48.009Z,17.23
2022-09-10T05:25:19.517Z,17.24
2022-09-10T05:25:51.429Z,17.24
2022-09-10T05:26:24.213Z,17.28
2022-09-10T05:26:56.933Z,17.24
2022-09-10T05:27:28.435Z,17.23
2022-09-10T05:28:01.184Z,17.26
2022-09-10T05:28:32.708Z,17.27
2022-09-10T05:29:04.308Z,17.24
2022-09-10T05:29:35.827Z,17.17
2022-09-10T05:30:08.357Z,17.18
2022-09-10T05:30:39.861Z,17.14
2022-09-10T05:31:12.942Z,17.21
2022-09-10T05:31:44.583Z,17.18
2022-09-10T05:32:16.177Z,17.17
2022-09-10T05:32:47.825Z,17.18
2022-09-10T05:33:19.361Z,17.18
2022-09-10T05:33:50.869Z,17.20
2022-09-10T05:34:22.494Z,17.16
2022-09-10T05:34:54.269Z,17.27
2022-09-10T05:35:26.041Z,17.27
2022-09-10T05:35:57.541Z,17.27
2022-09-10T05:36:29.334Z,17.28
2022-09-10T05:37:00.975Z,17.27
2022-09-10T05:37:32.501Z,17.18
2022-09-10T05:38:04.115Z,17.26
2022-09-10T05:38:39.708Z,17.23
2022-09-10T05:39:11.582Z,17.23
2022-09-10T05:39:43.368Z,17.24
2022-09-10T05:40:15.300Z,17.32
2022-09-10T05:40:47.028Z,17.26
2022-09-10T05:41:18.541Z,17.23
2022-09-10T05:41:50.070Z,17.28
2022-09-10T05:42:22.139Z,17.32
2022-09-10T05:42:54.244Z,17.20
2022-09-10T05:43:25.751Z,17.21
2022-09-10T05:43:57.791Z,17.21
2022-09-10T05:44:29.432Z,17.11
2022-09-10T05:45:01.131Z,17.20
2022-09-10T05:45:33.523Z,17.21
2022-09-10T05:46:05.317Z,17.18
2022-09-10T05:46:36.856Z,17.17
2022-09-10T05:47:08.688Z,17.17
2022-09-10T05:47:40.193Z,17.20
2022-09-10T05:48:11.753Z,17.21
2022-09-10T05:48:43.363Z,17.23
2022-09-10T05:49:15.261Z,17.27
2022-09-10T05:49:47.911Z,17.24
2022-09-10T05:50:19.995Z,17.21
2022-09-10T05:50:51.594Z,17.24
2022-09-10T05:51:27.759Z,17.21
2022-09-10T05:51:59.311Z,17.21
2022-09-10T05:52:31.155Z,17.23
2022-09-10T05:53:02.697Z,17.24
2022-09-10T05:53:34.413Z,17.23
2022-09-10T05:54:06.030Z,17.24
2022-09-10T05:54:37.543Z,17.23
2022-09-10T05:55:09.661Z,17.23
2022-09-10T05:55:41.167Z,17.23
2022-09-10T05:56:12.858Z,17.26
2022-09-10T05:56:44.501Z,17.26
2022-09-10T05:57:16.093Z,17.28
2022-09-10T05:57:47.654Z,17.30
2022-09-10T05:58:19.177Z,17.28
2022-09-10T05:58:50.717Z,17.31
2022-09-10T05:59:22.207Z,17.30
2022-09-10T05:59:53.901Z,17.38
2022-09-10T06:00:25.570Z,17.41
2022-09-10T06:00:58.189Z,17.38
2022-09-10T06:01:32.059Z,17.35
2022-09-10T06:02:03.951Z,17.38
2022-09-10T06:02:36.522Z,17.39
2022-09-10T06:03:08.261Z,17.38
2022-09-10T06:03:40.464Z,17.35
2022-09-10T06:04:12.065Z,17.35
2022-09-10T06:04:43.820Z,17.38
2022-09-10T06:05:15.362Z,17.39
2022-09-10T06:05:53.319Z,17.41
2022-09-10T06:06:28.251Z,17.39
2022-09-10T06:07:01.854Z,17.45
2022-09-10T06:07:34.429Z,17.45
2022-09-10T06:08:08.723Z,17.39
2022-09-10T06:08:40.827Z,17.41
2022-09-10T06:09:12.698Z,17.48
2022-09-10T06:09:44.233Z,17.47
2022-09-10T06:10:16.260Z,17.44
2022-09-10T06:11:02.569Z,17.39
2022-09-10T06:11:34.107Z,17.44
2022-09-10T06:12:08.638Z,17.51
2022-09-10T06:12:40.251Z,17.42
2022-09-10T06:13:11.785Z,17.47
2022-09-10T06:13:43.823Z,17.47
2022-09-10T06:14:15.589Z,17.48
2022-09-10T06:14:47.154Z,17.48
2022-09-10T06:15:21.096Z,17.49
2022-09-10T06:15:53.729Z,17.52
2022-09-10T06:16:25.272Z,17.58
2022-09-10T06:16:56.833Z,17.59
2022-09-10T06:17:28.337Z,17.57
2022-09-10T06:18:00.258Z,17.57
2022-09-10T06:18:33.128Z,17.62
2022-09-10T06:19:04.653Z,17.57
2022-09-10T06:19:36.170Z,17.58
2022-09-10T06:20:09.431Z,17.65
2022-09-10T06:20:40.944Z,17.58
2022-09-10T06:21:15.263Z,17.64
2022-09-10T06:21:49.624Z,17.71
2022-09-10T06:22:21.206Z,17.71
2022-09-10T06:22:52.928Z,17.68
2022-09-10T06:23:25.509Z,17.68
2022-09-10T06:23:57.130Z,17.61
2022-09-10T06:24:28.676Z,17.68
2022-09-10T06:25:00.188Z,17.71
2022-09-10T06:25:32.010Z,17.71
2022-09-10T06:26:10.289Z,17.69
2022-09-10T06:26:41.866Z,17.72
2022-09-10T06:27:13.374Z,17.69
2022-09-10T06:27:44.942Z,17.62
2022-09-10T06:28:16.444Z,17.65
2022-09-10T06:28:49.724Z,17.64
2022-09-10T06:29:22.559Z,17.65
2022-09-10T06:29:56.355Z,17.69
2022-09-10T06:30:28.313Z,17.68
2022-09-10T06:31:00.426Z,17.65
2022-09-10T06:31:31.995Z,17.66
2022-09-10T06:32:04.092Z,17.65
2022-09-10T06:32:35.631Z,17.65
2022-09-10T06:33:07.280Z,17.66
2022-09-10T06:33:38.834Z,17.69
2022-09-10T06:34:11.491Z,17.64
2022-09-10T06:34:43.142Z,17.65
2022-09-10T06:35:14.733Z,17.68
2022-09-10T06:35:53.727Z,17.66
2022-09-10T06:36:25.348Z,17.66
2022-09-10T06:36:58.298Z,17.66
2022-09-10T06:37:34.953Z,17.65
2022-09-10T06:38:06.670Z,17.61
2022-09-10T06:38:38.286Z,17.59
2022-09-10T06:39:09.906Z,17.58
2022-09-10T06:39:41.758Z,17.59
2022-09-10T06:40:13.467Z,17.59
2022-09-10T06:40:56.063Z,17.64
2022-09-10T06:41:30.970Z,17.65
2022-09-10T06:42:02.478Z,17.66
2022-09-10T06:42:33.980Z,17.64
2022-09-10T06:43:06.098Z,17.62
2022-09-10T06:43:40.022Z,17.59
2022-09-10T06:44:11.527Z,17.64
2022-09-10T06:44:44.199Z,17.57
2022-09-10T06:45:15.788Z,17.59
2022-09-10T06:45:47.323Z,17.57
2022-09-10T06:46:56.669Z,17.44
2022-09-10T06:47:55.476Z,17.49
2022-09-10T06:49:00.724Z,17.42
2022-09-10T06:49:32.642Z,17.44
2022-09-10T06:50:04.756Z,17.35
2022-09-10T06:50:37.568Z,17.32
2022-09-10T06:51:12.643Z,17.34
2022-09-10T06:51:44.257Z,17.32
2022-09-10T06:52:15.912Z,17.31
2022-09-10T06:52:48.775Z,17.28
2022-09-10T06:53:22.164Z,17.31
2022-09-10T06:53:53.696Z,17.27
2022-09-10T06:54:26.534Z,17.24
2022-09-10T06:54:59.297Z,17.23
2022-09-10T06:55:30.990Z,17.27
2022-09-10T06:56:05.589Z,17.27
2022-09-10T06:56:37.301Z,17.30
2022-09-10T06:57:08.878Z,17.30
2022-09-10T06:57:40.403Z,17.32
2022-09-10T06:58:11.918Z,17.32
2022-09-10T06:58:43.589Z,17.35
2022-09-10T06:59:15.221Z,17.34
2022-09-10T06:59:47.669Z,17.30
2022-09-10T07:00:19.321Z,17.32
2022-09-10T07:00:51.710Z,17.39
2022-09-10T07:01:25.788Z,17.31
2022-09-10T07:01:57.633Z,17.26
2022-09-10T07:02:30.959Z,17.28
2022-09-10T07:03:02.568Z,17.34
2022-09-10T07:03:34.314Z,17.35
2022-09-10T07:04:06.869Z,17.32
2022-09-10T07:04:38.408Z,17.35
2022-09-10T07:05:10.027Z,17.32
2022-09-10T07:05:42.015Z,17.31
2022-09-10T07:06:16.678Z,17.34
2022-09-10T07:06:48.227Z,17.31
2022-09-10T07:07:20.188Z,17.34
2022-09-10T07:07:52.241Z,17.39
2022-09-10T07:08:25.439Z,17.41
2022-09-10T07:08:58.108Z,17.32
2022-09-10T07:09:29.639Z,17.32
2022-09-10T07:10:01.501Z,17.35
2022-09-10T07:10:33.821Z,17.35
2022-09-10T07:11:08.061Z,17.37
2022-09-10T07:11:41.784Z,17.35
2022-09-10T07:12:13.513Z,17.35
2022-09-10T07:12:45.004Z,17.28
2022-09-10T07:13:17.426Z,17.32
2022-09-10T07:13:53.127Z,17.23
2022-09-10T07:14:24.669Z,17.28
2022-09-10T07:14:56.185Z,17.28
2022-09-10T07:15:28.416Z,17.27
2022-09-10T07:16:00.410Z,17.27
2022-09-10T07:16:32.113Z,17.31
2022-09-10T07:17:03.642Z,17.21
2022-09-10T07:17:36.099Z,17.26